sensor_id;sensor_type;location;lat;lon;timestamp;P1;durP1;ratioP1;P2;durP2;ratioP2
24715;SDS011;12822;50.124;8.678;2023-02-18T00:00:59;9.77;;;6.57;;
24715;SDS011;12822;50.124;8.678;2023-02-18T00:03:26;10.65;;;7.25;;
24715;SDS011;12822;50.124;8.678;2023-02-18T00:05:52;10.27;;;7.18;;
24715;SDS011;12822;50.124;8.678;2023-02-18T00:08:18;9.90;;;6.88;;
24715;SDS011;12822;50.124;8.678;2023-02-18T00:10:44;11.00;;;6.60;;
24715;SDS011;12822;50.124;8.678;2023-02-18T00:13:10;8.93;;;6.20;;
24715;SDS011;12822;50.124;8.678;2023-02-18T00:15:37;10.45;;;5.78;;
24715;SDS011;12822;50.124;8.678;2023-02-18T00:18:03;7.47;;;6.03;;
24715;SDS011;12822;50.124;8.678;2023-02-18T00:20:30;12.32;;;5.38;;
24715;SDS011;12822;50.124;8.678;2023-02-18T00:22:57;7.75;;;5.97;;
24715;SDS011;12822;50.124;8.678;2023-02-18T00:25:23;6.50;;;5.18;;
24715;SDS011;12822;50.124;8.678;2023-02-18T00:27:50;6.80;;;4.88;;
24715;SDS011;12822;50.124;8.678;2023-02-18T00:30:16;6.28;;;4.20;;
24715;SDS011;12822;50.124;8.678;2023-02-18T00:32:42;4.95;;;3.95;;
24715;SDS011;12822;50.124;8.678;2023-02-18T00:35:08;4.72;;;2.70;;
24715;SDS011;12822;50.124;8.678;2023-02-18T00:37:34;4.28;;;2.70;;
24715;SDS011;12822;50.124;8.678;2023-02-18T00:40:00;2.83;;;2.33;;
24715;SDS011;12822;50.124;8.678;2023-02-18T00:42:26;4.05;;;2.28;;
24715;SDS011;12822;50.124;8.678;2023-02-18T00:44:53;3.08;;;2.20;;
24715;SDS011;12822;50.124;8.678;2023-02-18T00:47:19;3.80;;;2.47;;
24715;SDS011;12822;50.124;8.678;2023-02-18T00:49:45;4.95;;;2.53;;
24715;SDS011;12822;50.124;8.678;2023-02-18T00:52:11;4.65;;;2.90;;
24715;SDS011;12822;50.124;8.678;2023-02-18T00:54:37;6.15;;;3.00;;
24715;SDS011;12822;50.124;8.678;2023-02-18T00:57:03;4.80;;;3.60;;
24715;SDS011;12822;50.124;8.678;2023-02-18T00:59:29;7.00;;;3.35;;
24715;SDS011;12822;50.124;8.678;2023-02-18T01:01:55;5.35;;;3.70;;
24715;SDS011;12822;50.124;8.678;2023-02-18T01:04:21;5.88;;;4.20;;
24715;SDS011;12822;50.124;8.678;2023-02-18T01:06:47;5.38;;;3.45;;
24715;SDS011;12822;50.124;8.678;2023-02-18T01:09:13;4.43;;;3.50;;
24715;SDS011;12822;50.124;8.678;2023-02-18T01:11:39;6.25;;;3.60;;
24715;SDS011;12822;50.124;8.678;2023-02-18T01:14:05;6.07;;;3.65;;
24715;SDS011;12822;50.124;8.678;2023-02-18T01:16:31;7.00;;;4.40;;
24715;SDS011;12822;50.124;8.678;2023-02-18T01:18:57;6.85;;;4.57;;
24715;SDS011;12822;50.124;8.678;2023-02-18T01:21:23;8.77;;;4.95;;
24715;SDS011;12822;50.124;8.678;2023-02-18T01:23:49;6.88;;;5.07;;
24715;SDS011;12822;50.124;8.678;2023-02-18T01:26:15;11.18;;;6.05;;
24715;SDS011;12822;50.124;8.678;2023-02-18T01:28:41;7.47;;;5.50;;
24715;SDS011;12822;50.124;8.678;2023-02-18T01:31:08;9.65;;;5.45;;
24715;SDS011;12822;50.124;8.678;2023-02-18T01:33:34;5.32;;;4.72;;
24715;SDS011;12822;50.124;8.678;2023-02-18T01:36:00;8.48;;;5.20;;
24715;SDS011;12822;50.124;8.678;2023-02-18T01:38:26;6.00;;;4.18;;
24715;SDS011;12822;50.124;8.678;2023-02-18T01:40:52;8.30;;;3.88;;
24715;SDS011;12822;50.124;8.678;2023-02-18T01:43:19;6.85;;;3.80;;
24715;SDS011;12822;50.124;8.678;2023-02-18T01:48:19;4.43;;;3.00;;
24715;SDS011;12822;50.124;8.678;2023-02-18T01:50:48;4.70;;;3.30;;
24715;SDS011;12822;50.124;8.678;2023-02-18T01:53:17;6.40;;;3.15;;
24715;SDS011;12822;50.124;8.678;2023-02-18T01:55:45;5.22;;;3.30;;
24715;SDS011;12822;50.124;8.678;2023-02-18T01:58:11;4.20;;;3.40;;
24715;SDS011;12822;50.124;8.678;2023-02-18T02:00:37;7.15;;;3.70;;
24715;SDS011;12822;50.124;8.678;2023-02-18T02:03:03;5.28;;;3.65;;
24715;SDS011;12822;50.124;8.678;2023-02-18T02:05:30;5.82;;;3.53;;
24715;SDS011;12822;50.124;8.678;2023-02-18T02:07:56;5.10;;;3.65;;
24715;SDS011;12822;50.124;8.678;2023-02-18T02:10:23;5.32;;;3.28;;
24715;SDS011;12822;50.124;8.678;2023-02-18T02:28:35;2.63;;;1.88;;
24715;SDS011;12822;50.124;8.678;2023-02-18T02:48:48;1.92;;;1.40;;
24715;SDS011;12822;50.124;8.678;2023-02-18T02:51:29;2.40;;;2.00;;
24715;SDS011;12822;50.124;8.678;2023-02-18T02:54:10;2.33;;;1.67;;
24715;SDS011;12822;50.124;8.678;2023-02-18T02:56:38;1.37;;;1.27;;
24715;SDS011;12822;50.124;8.678;2023-02-18T02:59:05;2.55;;;1.50;;
24715;SDS011;12822;50.124;8.678;2023-02-18T03:01:40;2.20;;;1.38;;
24715;SDS011;12822;50.124;8.678;2023-02-18T03:04:19;1.77;;;1.10;;
24715;SDS011;12822;50.124;8.678;2023-02-18T03:14:33;4.05;;;1.45;;
24715;SDS011;12822;50.124;8.678;2023-02-18T03:17:04;1.85;;;0.90;;
24715;SDS011;12822;50.124;8.678;2023-02-18T03:19:36;1.05;;;0.80;;
24715;SDS011;12822;50.124;8.678;2023-02-18T03:22:06;2.03;;;0.90;;
24715;SDS011;12822;50.124;8.678;2023-02-18T03:24:35;1.10;;;0.85;;
24715;SDS011;12822;50.124;8.678;2023-02-18T03:27:10;1.00;;;0.90;;
24715;SDS011;12822;50.124;8.678;2023-02-18T03:29:37;1.52;;;1.27;;
24715;SDS011;12822;50.124;8.678;2023-02-18T03:32:05;1.67;;;0.90;;
24715;SDS011;12822;50.124;8.678;2023-02-18T03:34:37;1.48;;;1.20;;
24715;SDS011;12822;50.124;8.678;2023-02-18T03:37:04;1.10;;;0.70;;
24715;SDS011;12822;50.124;8.678;2023-02-18T03:39:31;2.90;;;0.95;;
24715;SDS011;12822;50.124;8.678;2023-02-18T03:41:58;2.22;;;1.00;;
24715;SDS011;12822;50.124;8.678;2023-02-18T03:44:24;1.17;;;0.98;;
24715;SDS011;12822;50.124;8.678;2023-02-18T03:46:51;1.88;;;0.85;;
24715;SDS011;12822;50.124;8.678;2023-02-18T03:49:17;1.10;;;0.80;;
24715;SDS011;12822;50.124;8.678;2023-02-18T03:51:43;2.08;;;0.90;;
24715;SDS011;12822;50.124;8.678;2023-02-18T03:54:09;1.83;;;0.82;;
24715;SDS011;12822;50.124;8.678;2023-02-18T03:56:38;1.83;;;1.10;;
24715;SDS011;12822;50.124;8.678;2023-02-18T03:59:04;1.70;;;0.90;;
24715;SDS011;12822;50.124;8.678;2023-02-18T04:01:30;2.03;;;1.00;;
24715;SDS011;12822;50.124;8.678;2023-02-18T04:03:56;1.23;;;1.10;;
24715;SDS011;12822;50.124;8.678;2023-02-18T04:06:22;2.97;;;1.30;;
24715;SDS011;12822;50.124;8.678;2023-02-18T04:08:48;2.33;;;1.20;;
24715;SDS011;12822;50.124;8.678;2023-02-18T04:11:14;1.45;;;1.02;;
24715;SDS011;12822;50.124;8.678;2023-02-18T04:13:40;1.90;;;1.05;;
24715;SDS011;12822;50.124;8.678;2023-02-18T04:16:06;2.92;;;1.20;;
24715;SDS011;12822;50.124;8.678;2023-02-18T04:18:33;1.27;;;0.82;;
24715;SDS011;12822;50.124;8.678;2023-02-18T04:20:59;2.25;;;1.20;;
24715;SDS011;12822;50.124;8.678;2023-02-18T04:23:25;1.88;;;1.10;;
24715;SDS011;12822;50.124;8.678;2023-02-18T04:25:51;4.07;;;1.30;;
24715;SDS011;12822;50.124;8.678;2023-02-18T04:28:17;1.67;;;1.20;;
24715;SDS011;12822;50.124;8.678;2023-02-18T04:30:43;2.72;;;1.35;;
24715;SDS011;12822;50.124;8.678;2023-02-18T04:33:09;5.28;;;1.52;;
24715;SDS011;12822;50.124;8.678;2023-02-18T04:35:35;2.53;;;1.75;;
24715;SDS011;12822;50.124;8.678;2023-02-18T04:38:04;2.92;;;1.58;;
24715;SDS011;12822;50.124;8.678;2023-02-18T04:40:30;1.75;;;1.20;;
24715;SDS011;12822;50.124;8.678;2023-02-18T04:42:57;5.18;;;1.52;;
24715;SDS011;12822;50.124;8.678;2023-02-18T04:45:24;2.45;;;1.63;;
24715;SDS011;12822;50.124;8.678;2023-02-18T04:47:55;3.08;;;1.33;;
24715;SDS011;12822;50.124;8.678;2023-02-18T04:50:22;1.30;;;1.20;;
24715;SDS011;12822;50.124;8.678;2023-02-18T04:52:47;1.65;;;1.33;;
24715;SDS011;12822;50.124;8.678;2023-02-18T04:55:13;1.48;;;1.30;;
24715;SDS011;12822;50.124;8.678;2023-02-18T04:57:39;1.10;;;1.00;;
24715;SDS011;12822;50.124;8.678;2023-02-18T05:00:06;1.40;;;1.13;;
24715;SDS011;12822;50.124;8.678;2023-02-18T05:02:33;1.90;;;1.50;;
24715;SDS011;12822;50.124;8.678;2023-02-18T05:04:59;2.28;;;1.17;;
24715;SDS011;12822;50.124;8.678;2023-02-18T05:07:25;3.38;;;1.58;;
24715;SDS011;12822;50.124;8.678;2023-02-18T05:09:51;2.15;;;1.60;;
24715;SDS011;12822;50.124;8.678;2023-02-18T05:12:18;4.65;;;1.73;;
24715;SDS011;12822;50.124;8.678;2023-02-18T05:14:43;5.22;;;2.60;;
24715;SDS011;12822;50.124;8.678;2023-02-18T05:17:09;5.60;;;2.78;;
24715;SDS011;12822;50.124;8.678;2023-02-18T05:19:36;5.95;;;2.13;;
24715;SDS011;12822;50.124;8.678;2023-02-18T05:22:02;4.90;;;2.55;;
24715;SDS011;12822;50.124;8.678;2023-02-18T05:24:28;5.00;;;2.88;;
24715;SDS011;12822;50.124;8.678;2023-02-18T05:26:54;8.02;;;2.90;;
24715;SDS011;12822;50.124;8.678;2023-02-18T05:29:20;4.57;;;2.83;;
24715;SDS011;12822;50.124;8.678;2023-02-18T05:31:46;4.97;;;2.83;;
24715;SDS011;12822;50.124;8.678;2023-02-18T05:34:12;4.13;;;2.70;;
24715;SDS011;12822;50.124;8.678;2023-02-18T05:36:38;5.07;;;2.83;;
24715;SDS011;12822;50.124;8.678;2023-02-18T05:39:04;3.58;;;2.47;;
24715;SDS011;12822;50.124;8.678;2023-02-18T05:41:29;3.00;;;2.42;;
24715;SDS011;12822;50.124;8.678;2023-02-18T05:43:55;3.60;;;2.10;;
24715;SDS011;12822;50.124;8.678;2023-02-18T05:46:40;3.33;;;2.08;;
24715;SDS011;12822;50.124;8.678;2023-02-18T05:49:06;3.80;;;1.85;;
24715;SDS011;12822;50.124;8.678;2023-02-18T05:51:32;5.10;;;2.20;;
24715;SDS011;12822;50.124;8.678;2023-02-18T05:53:58;2.25;;;1.80;;
24715;SDS011;12822;50.124;8.678;2023-02-18T05:56:24;2.25;;;1.80;;
24715;SDS011;12822;50.124;8.678;2023-02-18T05:58:50;2.65;;;2.05;;
24715;SDS011;12822;50.124;8.678;2023-02-18T06:01:16;2.47;;;1.70;;
24715;SDS011;12822;50.124;8.678;2023-02-18T06:03:42;3.78;;;2.17;;
24715;SDS011;12822;50.124;8.678;2023-02-18T06:06:08;4.38;;;2.15;;
24715;SDS011;12822;50.124;8.678;2023-02-18T06:08:34;3.75;;;2.30;;
24715;SDS011;12822;50.124;8.678;2023-02-18T06:11:00;3.78;;;2.05;;
24715;SDS011;12822;50.124;8.678;2023-02-18T06:13:26;3.47;;;2.42;;
24715;SDS011;12822;50.124;8.678;2023-02-18T06:15:52;4.28;;;2.17;;
24715;SDS011;12822;50.124;8.678;2023-02-18T06:18:19;3.00;;;2.10;;
24715;SDS011;12822;50.124;8.678;2023-02-18T06:20:45;2.97;;;1.80;;
24715;SDS011;12822;50.124;8.678;2023-02-18T06:23:12;4.63;;;2.10;;
24715;SDS011;12822;50.124;8.678;2023-02-18T06:25:38;2.47;;;2.08;;
24715;SDS011;12822;50.124;8.678;2023-02-18T06:28:06;2.03;;;1.77;;
24715;SDS011;12822;50.124;8.678;2023-02-18T06:30:32;3.38;;;2.00;;
24715;SDS011;12822;50.124;8.678;2023-02-18T06:32:58;3.80;;;2.22;;
24715;SDS011;12822;50.124;8.678;2023-02-18T06:35:28;3.30;;;2.10;;
24715;SDS011;12822;50.124;8.678;2023-02-18T06:37:54;2.78;;;1.95;;
24715;SDS011;12822;50.124;8.678;2023-02-18T06:40:20;4.15;;;2.25;;
24715;SDS011;12822;50.124;8.678;2023-02-18T06:42:46;4.70;;;2.30;;
24715;SDS011;12822;50.124;8.678;2023-02-18T06:45:12;3.15;;;2.33;;
24715;SDS011;12822;50.124;8.678;2023-02-18T06:47:38;3.13;;;2.15;;
24715;SDS011;12822;50.124;8.678;2023-02-18T06:50:04;2.35;;;1.92;;
24715;SDS011;12822;50.124;8.678;2023-02-18T06:52:30;3.42;;;2.08;;
24715;SDS011;12822;50.124;8.678;2023-02-18T06:54:57;3.42;;;2.08;;
24715;SDS011;12822;50.124;8.678;2023-02-18T06:57:23;3.42;;;2.33;;
24715;SDS011;12822;50.124;8.678;2023-02-18T06:59:49;2.83;;;1.98;;
24715;SDS011;12822;50.124;8.678;2023-02-18T07:02:15;3.13;;;2.38;;
24715;SDS011;12822;50.124;8.678;2023-02-18T07:04:41;4.93;;;2.28;;
24715;SDS011;12822;50.124;8.678;2023-02-18T07:07:09;4.60;;;2.42;;
24715;SDS011;12822;50.124;8.678;2023-02-18T07:09:35;3.08;;;2.17;;
24715;SDS011;12822;50.124;8.678;2023-02-18T07:12:01;3.28;;;2.30;;
24715;SDS011;12822;50.124;8.678;2023-02-18T07:14:27;3.63;;;2.38;;
24715;SDS011;12822;50.124;8.678;2023-02-18T07:16:53;2.97;;;2.03;;
24715;SDS011;12822;50.124;8.678;2023-02-18T07:19:19;2.63;;;2.10;;
24715;SDS011;12822;50.124;8.678;2023-02-18T07:21:45;4.18;;;1.90;;
24715;SDS011;12822;50.124;8.678;2023-02-18T07:24:11;2.95;;;2.10;;
24715;SDS011;12822;50.124;8.678;2023-02-18T07:26:38;3.95;;;2.10;;
24715;SDS011;12822;50.124;8.678;2023-02-18T07:29:03;3.03;;;2.00;;
24715;SDS011;12822;50.124;8.678;2023-02-18T07:31:29;3.90;;;2.35;;
24715;SDS011;12822;50.124;8.678;2023-02-18T07:33:55;4.32;;;1.77;;
24715;SDS011;12822;50.124;8.678;2023-02-18T07:36:21;3.42;;;1.67;;
24715;SDS011;12822;50.124;8.678;2023-02-18T07:38:47;5.18;;;1.67;;
24715;SDS011;12822;50.124;8.678;2023-02-18T07:41:17;3.22;;;1.75;;
24715;SDS011;12822;50.124;8.678;2023-02-18T07:43:44;2.67;;;1.27;;
24715;SDS011;12822;50.124;8.678;2023-02-18T07:46:13;2.72;;;1.40;;
24715;SDS011;12822;50.124;8.678;2023-02-18T07:48:41;6.75;;;1.75;;
24715;SDS011;12822;50.124;8.678;2023-02-18T07:51:08;2.45;;;1.38;;
24715;SDS011;12822;50.124;8.678;2023-02-18T07:53:35;6.68;;;1.50;;
24715;SDS011;12822;50.124;8.678;2023-02-18T07:56:01;1.73;;;1.33;;
24715;SDS011;12822;50.124;8.678;2023-02-18T07:58:28;6.82;;;1.40;;
24715;SDS011;12822;50.124;8.678;2023-02-18T08:00:55;3.17;;;1.70;;
24715;SDS011;12822;50.124;8.678;2023-02-18T08:03:22;2.42;;;1.80;;
24715;SDS011;12822;50.124;8.678;2023-02-18T08:05:49;2.97;;;2.10;;
24715;SDS011;12822;50.124;8.678;2023-02-18T08:08:19;5.82;;;2.08;;
24715;SDS011;12822;50.124;8.678;2023-02-18T08:10:46;4.93;;;2.00;;
24715;SDS011;12822;50.124;8.678;2023-02-18T08:13:12;3.97;;;1.73;;
24715;SDS011;12822;50.124;8.678;2023-02-18T08:15:38;4.25;;;2.10;;
24715;SDS011;12822;50.124;8.678;2023-02-18T08:18:05;3.35;;;2.22;;
24715;SDS011;12822;50.124;8.678;2023-02-18T08:20:34;7.20;;;2.85;;
24715;SDS011;12822;50.124;8.678;2023-02-18T08:23:01;3.45;;;2.17;;
24715;SDS011;12822;50.124;8.678;2023-02-18T08:25:27;3.38;;;2.22;;
24715;SDS011;12822;50.124;8.678;2023-02-18T08:27:53;4.43;;;2.60;;
24715;SDS011;12822;50.124;8.678;2023-02-18T08:30:19;4.28;;;2.85;;
24715;SDS011;12822;50.124;8.678;2023-02-18T08:32:45;5.38;;;2.53;;
24715;SDS011;12822;50.124;8.678;2023-02-18T08:35:11;4.28;;;2.65;;
24715;SDS011;12822;50.124;8.678;2023-02-18T08:37:37;3.25;;;2.42;;
24715;SDS011;12822;50.124;8.678;2023-02-18T08:40:03;4.03;;;2.47;;
24715;SDS011;12822;50.124;8.678;2023-02-18T08:42:29;4.45;;;2.80;;
24715;SDS011;12822;50.124;8.678;2023-02-18T08:44:55;3.15;;;2.38;;
24715;SDS011;12822;50.124;8.678;2023-02-18T08:47:21;4.38;;;2.33;;
24715;SDS011;12822;50.124;8.678;2023-02-18T08:49:47;3.45;;;2.25;;
24715;SDS011;12822;50.124;8.678;2023-02-18T08:52:13;3.42;;;2.40;;
24715;SDS011;12822;50.124;8.678;2023-02-18T08:54:39;6.72;;;2.80;;
24715;SDS011;12822;50.124;8.678;2023-02-18T08:57:05;4.88;;;2.58;;
24715;SDS011;12822;50.124;8.678;2023-02-18T08:59:33;8.27;;;3.17;;
24715;SDS011;12822;50.124;8.678;2023-02-18T09:01:59;5.47;;;2.95;;
24715;SDS011;12822;50.124;8.678;2023-02-18T09:04:25;7.18;;;2.65;;
24715;SDS011;12822;50.124;8.678;2023-02-18T09:06:51;4.60;;;2.67;;
24715;SDS011;12822;50.124;8.678;2023-02-18T09:09:18;4.55;;;2.63;;
24715;SDS011;12822;50.124;8.678;2023-02-18T09:11:47;3.72;;;2.13;;
24715;SDS011;12822;50.124;8.678;2023-02-18T09:14:13;7.20;;;2.25;;
24715;SDS011;12822;50.124;8.678;2023-02-18T09:16:39;3.22;;;1.85;;
24715;SDS011;12822;50.124;8.678;2023-02-18T09:19:06;3.58;;;2.28;;
24715;SDS011;12822;50.124;8.678;2023-02-18T09:21:32;3.70;;;2.22;;
24715;SDS011;12822;50.124;8.678;2023-02-18T09:23:58;3.65;;;1.88;;
24715;SDS011;12822;50.124;8.678;2023-02-18T09:26:24;5.95;;;2.00;;
24715;SDS011;12822;50.124;8.678;2023-02-18T09:28:52;4.70;;;1.85;;
24715;SDS011;12822;50.124;8.678;2023-02-18T09:31:19;6.43;;;2.00;;
24715;SDS011;12822;50.124;8.678;2023-02-18T09:33:47;4.72;;;1.92;;
24715;SDS011;12822;50.124;8.678;2023-02-18T09:36:13;6.65;;;1.75;;
24715;SDS011;12822;50.124;8.678;2023-02-18T09:38:39;3.72;;;1.60;;
24715;SDS011;12822;50.124;8.678;2023-02-18T09:41:08;3.45;;;1.88;;
24715;SDS011;12822;50.124;8.678;2023-02-18T09:43:39;3.58;;;2.08;;
24715;SDS011;12822;50.124;8.678;2023-02-18T09:46:13;6.95;;;2.20;;
24715;SDS011;12822;50.124;8.678;2023-02-18T09:48:42;5.40;;;2.30;;
24715;SDS011;12822;50.124;8.678;2023-02-18T09:51:10;2.85;;;1.70;;
24715;SDS011;12822;50.124;8.678;2023-02-18T09:53:38;4.88;;;1.75;;
24715;SDS011;12822;50.124;8.678;2023-02-18T09:56:04;2.85;;;1.60;;
24715;SDS011;12822;50.124;8.678;2023-02-18T09:58:31;4.97;;;2.20;;
24715;SDS011;12822;50.124;8.678;2023-02-18T10:01:04;5.63;;;1.85;;
24715;SDS011;12822;50.124;8.678;2023-02-18T10:03:31;4.18;;;1.70;;
24715;SDS011;12822;50.124;8.678;2023-02-18T10:08:27;2.42;;;1.40;;
24715;SDS011;12822;50.124;8.678;2023-02-18T10:10:54;4.05;;;1.48;;
24715;SDS011;12822;50.124;8.678;2023-02-18T10:13:22;2.40;;;1.50;;
24715;SDS011;12822;50.124;8.678;2023-02-18T10:15:48;3.35;;;1.30;;
24715;SDS011;12822;50.124;8.678;2023-02-18T10:18:19;3.53;;;1.38;;
24715;SDS011;12822;50.124;8.678;2023-02-18T10:20:46;1.67;;;0.95;;
24715;SDS011;12822;50.124;8.678;2023-02-18T10:23:12;2.17;;;1.25;;
24715;SDS011;12822;50.124;8.678;2023-02-18T10:25:40;2.55;;;1.10;;
24715;SDS011;12822;50.124;8.678;2023-02-18T10:28:08;7.10;;;1.13;;
24715;SDS011;12822;50.124;8.678;2023-02-18T10:30:35;2.05;;;1.10;;
24715;SDS011;12822;50.124;8.678;2023-02-18T10:33:40;1.67;;;0.73;;
24715;SDS011;12822;50.124;8.678;2023-02-18T10:35:56;4.05;;;0.90;;
24715;SDS011;12822;50.124;8.678;2023-02-18T10:38:31;3.78;;;1.10;;
24715;SDS011;12822;50.124;8.678;2023-02-18T10:41:10;1.83;;;0.77;;
24715;SDS011;12822;50.124;8.678;2023-02-18T10:51:21;1.00;;;0.50;;
24715;SDS011;12822;50.124;8.678;2023-02-18T10:53:50;3.40;;;0.88;;
24715;SDS011;12822;50.124;8.678;2023-02-18T10:59:08;1.60;;;0.60;;
24715;SDS011;12822;50.124;8.678;2023-02-18T11:01:35;3.45;;;0.63;;
24715;SDS011;12822;50.124;8.678;2023-02-18T11:04:11;3.72;;;0.60;;
24715;SDS011;12822;50.124;8.678;2023-02-18T11:06:39;2.35;;;0.60;;
24715;SDS011;12822;50.124;8.678;2023-02-18T11:09:06;1.10;;;0.60;;
24715;SDS011;12822;50.124;8.678;2023-02-18T11:11:36;1.58;;;0.65;;
24715;SDS011;12822;50.124;8.678;2023-02-18T11:14:05;3.08;;;0.70;;
24715;SDS011;12822;50.124;8.678;2023-02-18T11:16:36;2.47;;;0.60;;
24715;SDS011;12822;50.124;8.678;2023-02-18T11:19:03;1.60;;;0.60;;
24715;SDS011;12822;50.124;8.678;2023-02-18T11:21:36;4.32;;;0.75;;
24715;SDS011;12822;50.124;8.678;2023-02-18T11:24:09;2.15;;;0.60;;
24715;SDS011;12822;50.124;8.678;2023-02-18T11:26:40;2.35;;;0.77;;
24715;SDS011;12822;50.124;8.678;2023-02-18T11:29:27;1.85;;;0.80;;
24715;SDS011;12822;50.124;8.678;2023-02-18T11:31:53;1.85;;;0.65;;
24715;SDS011;12822;50.124;8.678;2023-02-18T11:34:26;2.58;;;0.80;;
24715;SDS011;12822;50.124;8.678;2023-02-18T11:36:54;1.70;;;0.90;;
24715;SDS011;12822;50.124;8.678;2023-02-18T11:41:56;3.08;;;0.90;;
24715;SDS011;12822;50.124;8.678;2023-02-18T11:44:27;2.20;;;0.90;;
24715;SDS011;12822;50.124;8.678;2023-02-18T11:49:23;1.42;;;1.00;;
24715;SDS011;12822;50.124;8.678;2023-02-18T11:51:49;2.78;;;0.95;;
24715;SDS011;12822;50.124;8.678;2023-02-18T11:56:57;2.70;;;1.05;;
24715;SDS011;12822;50.124;8.678;2023-02-18T11:59:24;6.75;;;1.30;;
24715;SDS011;12822;50.124;8.678;2023-02-18T12:02:00;4.85;;;0.90;;
24715;SDS011;12822;50.124;8.678;2023-02-18T12:04:40;1.90;;;0.80;;
24715;SDS011;12822;50.124;8.678;2023-02-18T12:07:14;1.02;;;0.80;;
24715;SDS011;12822;50.124;8.678;2023-02-18T12:09:43;3.72;;;1.55;;
24715;SDS011;12822;50.124;8.678;2023-02-18T12:14:43;6.53;;;1.35;;
24715;SDS011;12822;50.124;8.678;2023-02-18T12:22:30;3.83;;;1.30;;
24715;SDS011;12822;50.124;8.678;2023-02-18T12:25:19;3.22;;;1.40;;
24715;SDS011;12822;50.124;8.678;2023-02-18T12:35:44;2.40;;;1.20;;
24715;SDS011;12822;50.124;8.678;2023-02-18T12:41:06;2.35;;;1.40;;
24715;SDS011;12822;50.124;8.678;2023-02-18T12:44:00;5.07;;;1.55;;
24715;SDS011;12822;50.124;8.678;2023-02-18T12:54:43;2.10;;;1.45;;
24715;SDS011;12822;50.124;8.678;2023-02-18T13:07:33;5.15;;;1.42;;
24715;SDS011;12822;50.124;8.678;2023-02-18T13:10:24;3.67;;;1.38;;
24715;SDS011;12822;50.124;8.678;2023-02-18T13:17:59;6.20;;;1.80;;
24715;SDS011;12822;50.124;8.678;2023-02-18T13:20:29;4.00;;;1.40;;
24715;SDS011;12822;50.124;8.678;2023-02-18T13:22:58;3.15;;;1.33;;
24715;SDS011;12822;50.124;8.678;2023-02-18T13:25:24;4.07;;;1.60;;
24715;SDS011;12822;50.124;8.678;2023-02-18T13:35:57;8.02;;;1.75;;
24715;SDS011;12822;50.124;8.678;2023-02-18T13:40:53;5.63;;;1.70;;
24715;SDS011;12822;50.124;8.678;2023-02-18T13:48:49;6.85;;;2.25;;
24715;SDS011;12822;50.124;8.678;2023-02-18T13:56:52;4.30;;;1.70;;
24715;SDS011;12822;50.124;8.678;2023-02-18T13:59:24;4.80;;;1.95;;
24715;SDS011;12822;50.124;8.678;2023-02-18T14:01:53;7.53;;;2.15;;
24715;SDS011;12822;50.124;8.678;2023-02-18T14:09:50;9.68;;;2.17;;
24715;SDS011;12822;50.124;8.678;2023-02-18T14:14:42;5.20;;;2.30;;
24715;SDS011;12822;50.124;8.678;2023-02-18T14:17:12;10.70;;;2.53;;
24715;SDS011;12822;50.124;8.678;2023-02-18T14:19:38;4.20;;;1.83;;
24715;SDS011;12822;50.124;8.678;2023-02-18T14:22:27;6.75;;;1.90;;
24715;SDS011;12822;50.124;8.678;2023-02-18T14:25:01;9.70;;;2.47;;
24715;SDS011;12822;50.124;8.678;2023-02-18T14:27:28;4.05;;;2.22;;
24715;SDS011;12822;50.124;8.678;2023-02-18T14:29:54;5.72;;;2.50;;
24715;SDS011;12822;50.124;8.678;2023-02-18T14:32:27;6.13;;;2.58;;
24715;SDS011;12822;50.124;8.678;2023-02-18T14:42:45;7.32;;;2.25;;
24715;SDS011;12822;50.124;8.678;2023-02-18T14:50:32;5.68;;;2.15;;
24715;SDS011;12822;50.124;8.678;2023-02-18T14:53:02;4.05;;;2.00;;
24715;SDS011;12822;50.124;8.678;2023-02-18T14:55:33;3.15;;;1.80;;
24715;SDS011;12822;50.124;8.678;2023-02-18T14:58:01;6.50;;;2.22;;
24715;SDS011;12822;50.124;8.678;2023-02-18T15:00:28;5.53;;;1.80;;
24715;SDS011;12822;50.124;8.678;2023-02-18T15:02:56;5.00;;;2.13;;
24715;SDS011;12822;50.124;8.678;2023-02-18T15:05:23;6.05;;;2.10;;
24715;SDS011;12822;50.124;8.678;2023-02-18T15:07:56;5.32;;;1.95;;
24715;SDS011;12822;50.124;8.678;2023-02-18T15:13:01;2.72;;;1.80;;
24715;SDS011;12822;50.124;8.678;2023-02-18T15:15:29;7.45;;;1.67;;
24715;SDS011;12822;50.124;8.678;2023-02-18T15:17:57;3.83;;;1.60;;
24715;SDS011;12822;50.124;8.678;2023-02-18T15:20:23;7.13;;;2.28;;
24715;SDS011;12822;50.124;8.678;2023-02-18T15:22:49;5.25;;;1.50;;
24715;SDS011;12822;50.124;8.678;2023-02-18T15:25:15;5.50;;;1.75;;
24715;SDS011;12822;50.124;8.678;2023-02-18T15:27:42;5.03;;;2.00;;
24715;SDS011;12822;50.124;8.678;2023-02-18T15:32:49;4.88;;;1.67;;
24715;SDS011;12822;50.124;8.678;2023-02-18T15:35:16;3.60;;;1.58;;
24715;SDS011;12822;50.124;8.678;2023-02-18T15:37:44;3.70;;;1.50;;
24715;SDS011;12822;50.124;8.678;2023-02-18T15:40:14;4.63;;;1.60;;
24715;SDS011;12822;50.124;8.678;2023-02-18T15:42:40;4.30;;;1.70;;
24715;SDS011;12822;50.124;8.678;2023-02-18T15:47:35;5.43;;;1.55;;
24715;SDS011;12822;50.124;8.678;2023-02-18T15:50:14;6.15;;;2.00;;
24715;SDS011;12822;50.124;8.678;2023-02-18T15:52:40;1.95;;;1.27;;
24715;SDS011;12822;50.124;8.678;2023-02-18T15:55:10;6.10;;;1.60;;
24715;SDS011;12822;50.124;8.678;2023-02-18T15:57:37;5.03;;;1.90;;
24715;SDS011;12822;50.124;8.678;2023-02-18T16:00:13;6.00;;;1.23;;
24715;SDS011;12822;50.124;8.678;2023-02-18T16:05:26;4.07;;;1.60;;
24715;SDS011;12822;50.124;8.678;2023-02-18T16:07:56;6.57;;;1.23;;
24715;SDS011;12822;50.124;8.678;2023-02-18T16:10:23;2.03;;;1.15;;
24715;SDS011;12822;50.124;8.678;2023-02-18T16:12:51;3.58;;;1.40;;
24715;SDS011;12822;50.124;8.678;2023-02-18T16:15:22;4.93;;;1.45;;
24715;SDS011;12822;50.124;8.678;2023-02-18T16:17:49;3.38;;;1.23;;
24715;SDS011;12822;50.124;8.678;2023-02-18T16:20:28;3.08;;;1.25;;
24715;SDS011;12822;50.124;8.678;2023-02-18T16:22:54;3.50;;;1.20;;
24715;SDS011;12822;50.124;8.678;2023-02-18T16:25:24;3.60;;;0.90;;
24715;SDS011;12822;50.124;8.678;2023-02-18T16:28:02;2.88;;;0.85;;
24715;SDS011;12822;50.124;8.678;2023-02-18T16:30:30;3.08;;;1.23;;
24715;SDS011;12822;50.124;8.678;2023-02-18T16:32:56;3.22;;;1.30;;
24715;SDS011;12822;50.124;8.678;2023-02-18T16:35:23;4.22;;;1.80;;
24715;SDS011;12822;50.124;8.678;2023-02-18T16:37:50;4.45;;;1.35;;
24715;SDS011;12822;50.124;8.678;2023-02-18T16:43:01;2.47;;;1.48;;
24715;SDS011;12822;50.124;8.678;2023-02-18T16:45:38;4.82;;;1.30;;
24715;SDS011;12822;50.124;8.678;2023-02-18T16:48:05;2.65;;;1.35;;
24715;SDS011;12822;50.124;8.678;2023-02-18T16:50:31;5.40;;;1.60;;
24715;SDS011;12822;50.124;8.678;2023-02-18T16:52:58;4.43;;;1.42;;
24715;SDS011;12822;50.124;8.678;2023-02-18T16:55:26;4.32;;;1.50;;
24715;SDS011;12822;50.124;8.678;2023-02-18T16:57:52;2.95;;;1.45;;
24715;SDS011;12822;50.124;8.678;2023-02-18T17:00:19;3.95;;;1.50;;
24715;SDS011;12822;50.124;8.678;2023-02-18T17:02:45;4.90;;;1.65;;
24715;SDS011;12822;50.124;8.678;2023-02-18T17:05:19;3.63;;;1.40;;
24715;SDS011;12822;50.124;8.678;2023-02-18T17:07:46;5.03;;;1.50;;
24715;SDS011;12822;50.124;8.678;2023-02-18T17:10:13;7.25;;;1.95;;
24715;SDS011;12822;50.124;8.678;2023-02-18T17:12:39;5.00;;;1.75;;
24715;SDS011;12822;50.124;8.678;2023-02-18T17:17:38;5.38;;;1.42;;
24715;SDS011;12822;50.124;8.678;2023-02-18T17:20:04;2.80;;;1.67;;
24715;SDS011;12822;50.124;8.678;2023-02-18T17:22:31;3.92;;;1.40;;
24715;SDS011;12822;50.124;8.678;2023-02-18T17:24:57;4.28;;;1.60;;
24715;SDS011;12822;50.124;8.678;2023-02-18T17:27:22;3.90;;;1.58;;
24715;SDS011;12822;50.124;8.678;2023-02-18T17:29:48;2.28;;;1.42;;
24715;SDS011;12822;50.124;8.678;2023-02-18T17:32:14;2.58;;;1.40;;
24715;SDS011;12822;50.124;8.678;2023-02-18T17:34:40;3.33;;;1.50;;
24715;SDS011;12822;50.124;8.678;2023-02-18T17:37:10;2.88;;;1.60;;